createdAt,value
2022-08-28T00:01:01.322Z,17.57
2022-08-28T00:04:04.742Z,18.00
2022-08-28T00:07:08.851Z,18.33
2022-08-28T00:10:13.844Z,19.30
2022-08-28T00:13:20.585Z,16.47
2022-08-28T00:16:23.543Z,18.00
2022-08-28T00:19:29.396Z,16.17
2022-08-28T00:22:34.108Z,18.60
2022-08-28T00:25:37.329Z,16.53
2022-08-28T00:31:41.516Z,17.07
2022-08-28T00:34:44.387Z,14.85
2022-08-28T00:37:48.462Z,15.45
2022-08-28T00:40:54.599Z,14.23
2022-08-28T00:44:08.268Z,14.33
2022-08-28T00:47:11.015Z,14.30
2022-08-28T00:50:17.894Z,14.45
2022-08-28T00:53:21.366Z,13.90
2022-08-28T00:56:29.153Z,12.87
2022-08-28T00:59:31.767Z,13.20
2022-08-28T01:02:34.447Z,13.77
2022-08-28T01:05:37.949Z,13.52
2022-08-28T01:08:44.400Z,14.17
2022-08-28T01:11:54.906Z,15.07
2022-08-28T01:15:00.966Z,14.87
2022-08-28T01:18:08.615Z,13.97
2022-08-28T01:21:16.860Z,14.50
2022-08-28T01:24:24.763Z,14.87
2022-08-28T01:27:28.118Z,15.07
2022-08-28T01:30:31.880Z,14.83
2022-08-28T01:33:34.500Z,14.70
2022-08-28T01:36:37.805Z,16.38
2022-08-28T01:39:41.840Z,15.13
2022-08-28T01:42:45.311Z,15.17
2022-08-28T01:45:53.269Z,15.30
2022-08-28T01:48:55.945Z,15.37
2022-08-28T01:51:59.148Z,15.05
2022-08-28T01:55:05.086Z,15.13
2022-08-28T01:58:08.882Z,15.63
2022-08-28T02:01:12.193Z,14.43
2022-08-28T02:04:14.996Z,15.87
2022-08-28T02:07:17.830Z,15.63
2022-08-28T02:10:25.459Z,14.55
2022-08-28T02:13:28.318Z,16.50
2022-08-28T02:16:30.933Z,16.70
2022-08-28T02:19:33.555Z,14.73
2022-08-28T02:22:36.378Z,15.48
2022-08-28T02:25:40.441Z,15.70
2022-08-28T02:28:43.412Z,16.10
2022-08-28T02:31:46.078Z,15.88
2022-08-28T02:34:48.688Z,14.85
2022-08-28T02:37:52.102Z,16.45
2022-08-28T02:40:58.873Z,16.10
2022-08-28T02:44:01.499Z,14.90
2022-08-28T02:47:05.023Z,15.50
2022-08-28T02:50:09.025Z,15.00
2022-08-28T02:53:12.171Z,15.47
2022-08-28T02:59:19.215Z,15.40
2022-08-28T03:02:21.816Z,15.80
2022-08-28T03:05:26.898Z,16.93
2022-08-28T03:08:30.188Z,16.93
2022-08-28T03:11:34.802Z,16.83
2022-08-28T03:14:37.368Z,16.70
2022-08-28T03:17:40.576Z,16.23
2022-08-28T03:20:45.530Z,16.87
2022-08-28T03:23:48.173Z,16.80
2022-08-28T03:26:52.230Z,16.38
2022-08-28T03:29:54.884Z,14.93
2022-08-28T03:32:57.558Z,16.65
2022-08-28T03:36:00.373Z,17.80
2022-08-28T03:39:07.792Z,16.03
2022-08-28T03:45:16.379Z,16.03
2022-08-28T03:48:19.521Z,15.02
2022-08-28T03:51:29.295Z,15.18
2022-08-28T03:54:32.709Z,15.87
2022-08-28T04:00:40.208Z,16.43
2022-08-28T04:06:45.385Z,15.80
2022-08-28T04:09:48.394Z,16.20
2022-08-28T04:12:53.722Z,16.42
2022-08-28T04:15:58.273Z,16.87
2022-08-28T04:19:01.011Z,14.53
2022-08-28T04:22:03.978Z,17.52
2022-08-28T04:25:08.321Z,15.77
2022-08-28T04:28:12.457Z,16.77
2022-08-28T04:31:15.959Z,16.00
2022-08-28T04:34:18.774Z,16.10
2022-08-28T04:37:21.489Z,14.20
2022-08-28T04:40:27.247Z,15.57
2022-08-28T04:43:31.454Z,16.08
2022-08-28T04:46:34.115Z,14.70
2022-08-28T04:49:37.106Z,14.95
2022-08-28T04:52:39.842Z,14.45
2022-08-28T04:55:53.858Z,15.60
2022-08-28T04:58:58.840Z,15.07
2022-08-28T05:02:01.596Z,15.33
2022-08-28T05:05:04.938Z,14.10
2022-08-28T05:08:07.625Z,14.67
2022-08-28T05:11:12.407Z,14.30
2022-08-28T05:14:17.095Z,14.47
2022-08-28T05:17:19.813Z,15.33
2022-08-28T05:20:22.508Z,14.40
2022-08-28T05:23:25.717Z,14.88
2022-08-28T05:26:30.122Z,13.93
2022-08-28T05:29:34.387Z,14.90
2022-08-28T05:32:37.030Z,15.00
2022-08-28T05:35:41.573Z,15.57
2022-08-28T05:38:45.522Z,13.90
2022-08-28T05:41:48.150Z,15.77
2022-08-28T05:44:54.681Z,14.70
2022-08-28T05:47:57.571Z,14.57
2022-08-28T05:51:01.916Z,15.20
2022-08-28T05:54:05.939Z,13.27
2022-08-28T05:57:08.633Z,14.18
2022-08-28T06:00:13.808Z,14.27
2022-08-28T06:03:16.413Z,13.20
2022-08-28T06:06:19.245Z,13.07
2022-08-28T06:09:28.812Z,13.13
2022-08-28T06:12:32.325Z,11.70
2022-08-28T06:15:42.645Z,13.27
2022-08-28T06:18:46.231Z,12.37
2022-08-28T06:21:51.477Z,12.20
2022-08-28T06:24:54.450Z,13.40
2022-08-28T06:27:57.202Z,13.07
2022-08-28T06:31:23.177Z,12.88
2022-08-28T06:34:26.968Z,12.90
2022-08-28T06:40:32.059Z,11.97
2022-08-28T06:43:34.757Z,12.13
2022-08-28T06:46:39.091Z,11.60
2022-08-28T06:49:41.829Z,11.10
2022-08-28T06:52:44.637Z,10.65
2022-08-28T06:55:52.656Z,11.15
2022-08-28T06:58:56.696Z,9.73
2022-08-28T07:02:00.790Z,10.07
2022-08-28T07:05:03.585Z,10.13
2022-08-28T07:08:06.276Z,9.10
2022-08-28T07:11:14.304Z,8.80
2022-08-28T07:14:16.851Z,8.73
2022-08-28T07:17:21.111Z,8.93
2022-08-28T07:20:23.864Z,9.40
2022-08-28T07:23:26.840Z,8.70
2022-08-28T07:26:29.656Z,8.80
2022-08-28T07:29:35.401Z,8.90
2022-08-28T07:32:39.622Z,9.02
2022-08-28T07:35:44.612Z,8.10
2022-08-28T07:38:47.743Z,9.63
2022-08-28T07:44:54.565Z,8.63
2022-08-28T07:47:58.764Z,9.73
2022-08-28T07:51:01.408Z,9.07
2022-08-28T07:54:04.895Z,9.48
2022-08-28T07:57:10.563Z,8.93
2022-08-28T08:00:14.262Z,8.80
2022-08-28T08:03:18.489Z,9.13
2022-08-28T08:06:21.401Z,8.73
2022-08-28T08:09:24.389Z,8.80
2022-08-28T08:12:27.928Z,8.50
2022-08-28T08:15:34.494Z,8.93
2022-08-28T08:18:39.032Z,9.13
2022-08-28T08:21:43.274Z,8.23
2022-08-28T08:24:46.184Z,8.93
2022-08-28T08:27:48.843Z,8.85
2022-08-28T08:31:03.912Z,9.25
2022-08-28T08:34:09.888Z,9.27
2022-08-28T08:37:13.400Z,8.37
2022-08-28T08:40:19.488Z,8.23
2022-08-28T08:43:23.931Z,8.63
2022-08-28T08:46:32.493Z,9.15
2022-08-28T08:49:38.187Z,8.10
2022-08-28T08:52:53.884Z,8.73
2022-08-28T08:55:58.254Z,8.55
2022-08-28T08:59:01.427Z,8.63
2022-08-28T09:05:13.448Z,10.05
2022-08-28T09:08:32.432Z,7.82
2022-08-28T09:11:44.742Z,8.55
2022-08-28T09:14:57.236Z,7.65
2022-08-28T09:18:09.506Z,7.45
2022-08-28T09:21:29.399Z,7.15
2022-08-28T09:24:33.833Z,7.05
2022-08-28T09:27:37.904Z,7.57
2022-08-28T09:30:43.808Z,7.28
2022-08-28T09:33:48.498Z,7.63
2022-08-28T09:36:53.793Z,6.55
2022-08-28T09:40:15.223Z,7.00
2022-08-28T09:43:27.969Z,6.53
2022-08-28T09:46:32.574Z,7.28
2022-08-28T09:49:35.247Z,6.50
2022-08-28T09:52:39.463Z,6.15
2022-08-28T09:55:51.319Z,6.65
2022-08-28T09:58:59.552Z,5.80
2022-08-28T10:02:14.545Z,5.57
2022-08-28T10:05:20.497Z,6.32
2022-08-28T10:08:42.292Z,6.70
2022-08-28T10:11:49.812Z,6.15
2022-08-28T10:14:57.305Z,7.03
2022-08-28T10:18:15.189Z,5.80
2022-08-28T10:21:23.278Z,5.40
2022-08-28T10:24:37.989Z,6.10
2022-08-28T10:27:53.184Z,5.80
2022-08-28T10:31:09.905Z,5.80
2022-08-28T10:34:27.945Z,6.05
2022-08-28T10:37:40.019Z,5.65
2022-08-28T10:40:52.434Z,5.73
2022-08-28T10:43:55.836Z,6.18
2022-08-28T10:46:59.150Z,4.82
2022-08-28T10:50:06.625Z,5.30
2022-08-28T10:53:12.834Z,4.55
2022-08-28T10:56:20.815Z,5.05
2022-08-28T10:59:23.785Z,4.20
2022-08-28T11:02:27.762Z,4.78
2022-08-28T11:05:32.653Z,4.75
2022-08-28T11:08:37.219Z,5.55
2022-08-28T11:11:45.094Z,5.03
2022-08-28T11:14:49.504Z,4.28
2022-08-28T11:17:53.714Z,4.50
2022-08-28T11:20:58.869Z,5.22
2022-08-28T11:24:05.036Z,4.90
2022-08-28T11:27:22.646Z,4.95
2022-08-28T11:30:33.052Z,4.30
2022-08-28T11:33:39.842Z,5.07
2022-08-28T11:37:04.590Z,4.32
2022-08-28T11:40:20.625Z,5.43
2022-08-28T11:43:37.340Z,3.90
2022-08-28T11:46:41.165Z,4.50
2022-08-28T11:49:45.809Z,4.30
2022-08-28T11:53:18.429Z,4.68
2022-08-28T11:56:37.635Z,4.25
2022-08-28T12:00:02.787Z,4.50
2022-08-28T12:03:13.690Z,4.60
2022-08-28T12:06:16.668Z,3.90
2022-08-28T12:09:40.063Z,4.25
2022-08-28T12:12:54.135Z,3.75
2022-08-28T12:16:06.231Z,4.70
2022-08-28T12:19:09.364Z,4.57
2022-08-28T12:22:13.714Z,4.30
2022-08-28T12:25:27.910Z,4.68
2022-08-28T12:28:32.849Z,4.57
2022-08-28T12:32:14.940Z,4.32
2022-08-28T12:35:21.002Z,4.00
2022-08-28T12:38:23.726Z,4.30
2022-08-28T12:44:30.957Z,4.32
2022-08-28T12:47:35.862Z,4.50
2022-08-28T12:50:39.731Z,5.07
2022-08-28T12:53:44.549Z,4.22
2022-08-28T12:56:47.308Z,4.55
2022-08-28T13:02:56.272Z,4.00
2022-08-28T13:06:04.000Z,3.47
2022-08-28T13:09:08.654Z,3.05
2022-08-28T13:12:21.344Z,3.03
2022-08-28T13:18:51.312Z,3.15
2022-08-28T13:22:00.257Z,3.53
2022-08-28T13:25:03.858Z,3.05
2022-08-28T13:28:13.879Z,2.83
2022-08-28T13:31:23.955Z,2.50
2022-08-28T13:34:29.371Z,2.90
2022-08-28T13:37:44.448Z,2.88
2022-08-28T13:40:58.317Z,3.17
2022-08-28T13:44:01.253Z,3.58
2022-08-28T13:47:06.705Z,3.03
2022-08-28T13:50:11.007Z,3.17
2022-08-28T13:53:14.218Z,3.50
2022-08-28T13:56:17.010Z,3.00
2022-08-28T13:59:20.760Z,3.00
2022-08-28T14:02:41.540Z,3.15
2022-08-28T14:05:45.540Z,2.92
2022-08-28T14:08:48.194Z,2.70
2022-08-28T14:11:50.902Z,3.13
2022-08-28T14:14:53.697Z,3.15
2022-08-28T14:17:56.494Z,3.03
2022-08-28T14:21:00.479Z,3.13
2022-08-28T14:24:03.587Z,2.80
2022-08-28T14:27:06.293Z,2.78
2022-08-28T14:30:10.253Z,2.28
2022-08-28T14:33:16.860Z,2.70
2022-08-28T14:36:22.975Z,2.63
2022-08-28T14:39:27.446Z,3.08
2022-08-28T14:42:30.315Z,2.38
2022-08-28T14:45:32.990Z,3.05
2022-08-28T14:48:35.796Z,2.30
2022-08-28T14:51:42.091Z,2.70
2022-08-28T14:54:44.705Z,2.58
2022-08-28T14:57:48.838Z,2.53
2022-08-28T15:00:54.416Z,2.63
2022-08-28T15:03:57.797Z,3.00
2022-08-28T15:07:03.958Z,3.30
2022-08-28T15:10:07.810Z,2.70
2022-08-28T15:13:12.646Z,2.70
2022-08-28T15:16:17.894Z,2.95
2022-08-28T15:19:23.296Z,2.78
2022-08-28T15:22:27.640Z,2.60
2022-08-28T15:25:30.224Z,2.55
2022-08-28T15:28:33.117Z,2.13
2022-08-28T15:31:38.303Z,2.30
2022-08-28T15:34:42.610Z,2.92
2022-08-28T15:37:46.591Z,2.95
2022-08-28T15:41:07.166Z,2.63
2022-08-28T15:44:14.438Z,3.40
2022-08-28T15:47:18.136Z,2.42
2022-08-28T15:50:21.285Z,3.03
2022-08-28T15:53:26.428Z,2.78
2022-08-28T15:56:29.222Z,2.25
2022-08-28T15:59:48.454Z,2.22
2022-08-28T16:02:51.860Z,2.63
2022-08-28T16:05:55.044Z,2.53
2022-08-28T16:08:59.091Z,3.08
2022-08-28T16:12:01.909Z,2.50
2022-08-28T16:15:05.226Z,2.60
2022-08-28T16:18:09.378Z,2.30
2022-08-28T16:21:12.960Z,2.15
2022-08-28T16:24:17.279Z,2.47
2022-08-28T16:27:19.938Z,2.03
2022-08-28T16:30:24.688Z,2.38
2022-08-28T16:33:28.000Z,2.75
2022-08-28T16:36:31.090Z,2.85
2022-08-28T16:39:35.282Z,2.67
2022-08-28T16:42:38.092Z,3.15
2022-08-28T16:45:43.943Z,2.53
2022-08-28T16:48:47.140Z,2.78
2022-08-28T16:51:49.987Z,2.70
2022-08-28T16:54:54.565Z,2.80
2022-08-28T16:57:57.246Z,3.40
2022-08-28T17:04:03.358Z,2.90
2022-08-28T17:07:06.215Z,2.58
2022-08-28T17:10:13.345Z,5.35
2022-08-28T17:13:16.572Z,2.80
2022-08-28T17:16:20.489Z,2.83
2022-08-28T17:19:24.836Z,3.03
2022-08-28T17:22:33.101Z,3.10
2022-08-28T17:25:37.390Z,3.05
2022-08-28T17:28:40.087Z,3.40
2022-08-28T17:34:45.337Z,3.40
2022-08-28T17:40:53.288Z,3.55
2022-08-28T17:43:56.140Z,2.92
2022-08-28T17:46:58.855Z,4.03
2022-08-28T17:53:04.978Z,3.20
2022-08-28T17:56:09.456Z,2.78
2022-08-28T17:59:13.148Z,3.17
2022-08-28T18:02:16.882Z,2.95
2022-08-28T18:05:19.555Z,2.83
2022-08-28T18:08:22.543Z,3.17
2022-08-28T18:11:26.428Z,3.03
2022-08-28T18:14:29.210Z,3.35
2022-08-28T18:20:34.527Z,3.10
2022-08-28T18:23:37.320Z,3.35
2022-08-28T18:26:41.473Z,3.00
2022-08-28T18:29:44.534Z,3.50
2022-08-28T18:32:47.398Z,3.35
2022-08-28T18:38:54.337Z,3.92
2022-08-28T18:41:59.129Z,3.55
2022-08-28T18:45:02.114Z,3.75
2022-08-28T18:48:05.575Z,4.43
2022-08-28T18:51:09.193Z,3.87
2022-08-28T18:54:13.012Z,4.13
2022-08-28T18:57:18.571Z,4.50
2022-08-28T19:00:21.820Z,3.97
2022-08-28T19:03:24.504Z,3.83
2022-08-28T19:06:27.225Z,3.85
2022-08-28T19:09:32.401Z,3.80
2022-08-28T19:12:37.586Z,3.53
2022-08-28T19:15:40.220Z,4.00
2022-08-28T19:18:42.998Z,3.90
2022-08-28T19:21:45.593Z,3.90
2022-08-28T19:24:49.231Z,4.35
2022-08-28T19:27:56.268Z,5.73
2022-08-28T19:31:01.321Z,3.80
2022-08-28T19:34:04.153Z,3.95
2022-08-28T19:37:06.854Z,3.33
2022-08-28T19:40:11.297Z,4.10
2022-08-28T19:43:16.743Z,3.90
2022-08-28T19:46:20.630Z,3.73
2022-08-28T19:49:23.786Z,3.63
2022-08-28T19:52:26.374Z,3.42
2022-08-28T19:55:29.485Z,3.90
2022-08-28T20:01:39.580Z,3.57
2022-08-28T20:04:42.403Z,4.23
2022-08-28T20:07:45.517Z,4.03
2022-08-28T20:13:53.078Z,5.05
2022-08-28T20:16:55.942Z,4.10
2022-08-28T20:20:02.403Z,4.57
2022-08-28T20:23:06.372Z,4.20
2022-08-28T20:26:10.641Z,3.90
2022-08-28T20:29:15.148Z,4.13
2022-08-28T20:32:17.798Z,5.50
2022-08-28T20:35:22.147Z,4.00
2022-08-28T20:38:27.383Z,4.53
2022-08-28T20:41:30.053Z,4.95
2022-08-28T20:44:34.197Z,4.70
2022-08-28T20:47:36.779Z,4.77
2022-08-28T20:50:39.320Z,4.07
2022-08-28T20:53:42.065Z,4.68
2022-08-28T20:56:44.585Z,4.47
2022-08-28T20:59:48.769Z,4.65
2022-08-28T21:02:51.797Z,4.50
2022-08-28T21:05:54.337Z,4.53
2022-08-28T21:08:57.132Z,4.93
2022-08-28T21:11:59.907Z,4.38
2022-08-28T21:15:05.151Z,4.63
2022-08-28T21:18:08.214Z,4.40
2022-08-28T21:21:13.261Z,4.43
2022-08-28T21:24:18.706Z,4.63
2022-08-28T21:27:22.021Z,4.80
2022-08-28T21:30:29.748Z,4.50
2022-08-28T21:33:32.596Z,5.17
2022-08-28T21:36:35.377Z,4.88
2022-08-28T21:39:38.396Z,4.80
2022-08-28T21:42:41.359Z,4.68
2022-08-28T21:45:45.518Z,4.20
2022-08-28T21:48:49.420Z,6.20
2022-08-28T21:51:52.007Z,4.50
2022-08-28T21:54:57.943Z,4.50
2022-08-28T21:58:00.716Z,5.40
2022-08-28T22:01:04.995Z,5.63
2022-08-28T22:04:07.704Z,4.77
2022-08-28T22:07:11.978Z,4.80
2022-08-28T22:10:14.996Z,5.60
2022-08-28T22:13:17.984Z,5.15
2022-08-28T22:16:22.614Z,4.50
2022-08-28T22:19:25.374Z,5.10
2022-08-28T22:22:45.645Z,5.00
2022-08-28T22:25:48.451Z,4.73
2022-08-28T22:28:51.177Z,4.30
2022-08-28T22:31:55.404Z,4.30
2022-08-28T22:34:58.111Z,5.40
2022-08-28T22:38:00.737Z,4.75
2022-08-28T22:41:03.405Z,4.32
2022-08-28T22:44:06.966Z,4.60
2022-08-28T22:47:11.349Z,5.00
2022-08-28T22:50:13.954Z,5.37
2022-08-28T22:53:18.019Z,5.00
2022-08-28T22:56:21.169Z,4.07
2022-08-28T22:59:23.953Z,4.55
2022-08-28T23:02:28.891Z,5.03
2022-08-28T23:05:33.460Z,5.37
2022-08-28T23:08:36.233Z,4.17
2022-08-28T23:11:39.197Z,4.32
2022-08-28T23:14:44.260Z,4.65
2022-08-28T23:17:51.974Z,4.47
2022-08-28T23:20:55.184Z,5.37
2022-08-28T23:23:58.859Z,5.00
2022-08-28T23:27:19.390Z,5.18
2022-08-28T23:30:24.885Z,4.80
2022-08-28T23:33:29.641Z,4.97
2022-08-28T23:36:32.421Z,4.77
2022-08-28T23:39:38.268Z,4.90
2022-08-28T23:42:40.934Z,4.80
2022-08-28T23:45:44.424Z,5.15
2022-08-28T23:48:49.627Z,5.20
2022-08-28T23:51:52.631Z,4.80
2022-08-28T23:54:55.267Z,4.70
2022-08-28T23:57:57.896Z,5.40
